createdAt,value
2023-04-19T00:02:29.122Z,92626.72
2023-04-19T00:07:31.085Z,92620.34
2023-04-19T00:12:32.911Z,92618.66
2023-04-19T00:17:35.049Z,92605.72
2023-04-19T00:22:36.913Z,92622.41
2023-04-19T00:27:38.686Z,92626.16
2023-04-19T00:32:40.659Z,92610.91
2023-04-19T00:37:42.471Z,92597.88
2023-04-19T00:42:48.153Z,92611.72
2023-04-19T00:47:50.076Z,92619.91
2023-04-19T00:52:55.693Z,92623.53
2023-04-19T00:57:59.950Z,92618.94
2023-04-19T01:03:01.940Z,92616.97
2023-04-19T01:08:04.002Z,92610.16
2023-04-19T01:13:06.186Z,92588.88
2023-04-19T01:18:09.212Z,92597.84
2023-04-19T01:23:13.619Z,92599.53
2023-04-19T01:28:15.548Z,92604.03
2023-04-19T01:33:17.549Z,92611.66
2023-04-19T01:38:19.345Z,92591.44
2023-04-19T01:43:21.129Z,92595.38
2023-04-19T01:48:22.964Z,92588.78
2023-04-19T01:53:24.786Z,92579.25
2023-04-19T01:58:26.576Z,92587.56
2023-04-19T02:03:29.525Z,92567.50
2023-04-19T02:08:31.662Z,92584.03
2023-04-19T02:13:33.427Z,92583.56
2023-04-19T02:18:38.735Z,92585.34
2023-04-19T02:23:40.573Z,92584.25
2023-04-19T02:28:42.420Z,92590.16
2023-04-19T02:33:46.705Z,92579.59
2023-04-19T02:38:48.521Z,92595.00
2023-04-19T02:43:50.468Z,92584.66
2023-04-19T02:48:52.191Z,92600.09
2023-04-19T02:53:54.276Z,92595.72
2023-04-19T02:58:57.123Z,92595.94
2023-04-19T03:03:59.157Z,92591.38
2023-04-19T03:09:01.125Z,92582.97
2023-04-19T03:14:03.000Z,92589.13
2023-04-19T03:19:05.237Z,92588.59
2023-04-19T03:24:13.223Z,92583.25
2023-04-19T03:29:20.696Z,92572.88
2023-04-19T03:34:42.925Z,92582.47
2023-04-19T03:39:46.712Z,92580.75
2023-04-19T03:44:53.243Z,92581.47
2023-04-19T03:49:55.297Z,92569.78
2023-04-19T03:54:57.475Z,92576.84
2023-04-19T04:00:08.814Z,92574.94
2023-04-19T04:05:16.237Z,92579.09
2023-04-19T04:10:18.813Z,92572.16
2023-04-19T04:15:21.506Z,92586.16
2023-04-19T04:20:27.536Z,92576.72
2023-04-19T04:25:37.555Z,92581.53
2023-04-19T04:30:42.730Z,92585.06
2023-04-19T04:35:47.245Z,92580.31
2023-04-19T04:40:56.251Z,92586.28
2023-04-19T04:45:58.507Z,92582.34
2023-04-19T04:51:05.308Z,92587.13
2023-04-19T04:56:09.041Z,92591.63
2023-04-19T05:01:11.172Z,92595.38
2023-04-19T05:06:15.543Z,92590.13
2023-04-19T05:11:17.963Z,92591.47
2023-04-19T05:16:20.647Z,92586.81
2023-04-19T05:21:24.141Z,92586.50
2023-04-19T05:26:26.178Z,92586.06
2023-04-19T05:31:29.466Z,92566.16
2023-04-19T05:36:46.824Z,92592.94
2023-04-19T05:41:50.359Z,92591.28
2023-04-19T05:46:52.460Z,92589.50
2023-04-19T05:52:08.885Z,92571.81
2023-04-19T05:57:19.446Z,92589.06
2023-04-19T06:02:21.874Z,92598.25
2023-04-19T06:07:31.727Z,92601.13
2023-04-19T06:12:36.264Z,92601.09
2023-04-19T06:17:38.211Z,92603.47
2023-04-19T06:22:46.082Z,92591.84
2023-04-19T06:27:47.937Z,92608.59
2023-04-19T06:32:50.130Z,92599.69
2023-04-19T06:37:52.254Z,92543.09
2023-04-19T06:42:54.163Z,92602.56
2023-04-19T06:47:56.558Z,92594.84
2023-04-19T06:52:58.469Z,92589.34
2023-04-19T06:58:00.569Z,92598.84
2023-04-19T07:03:02.864Z,92598.00
2023-04-19T07:08:04.919Z,92597.03
2023-04-19T07:13:06.771Z,92591.09
2023-04-19T07:18:11.111Z,92593.53
2023-04-19T07:23:12.948Z,92591.50
2023-04-19T07:28:16.032Z,92595.13
2023-04-19T07:33:18.053Z,92598.03
2023-04-19T07:38:20.082Z,92589.28
2023-04-19T07:43:22.194Z,92580.75
2023-04-19T07:48:24.232Z,92589.25
2023-04-19T07:53:26.177Z,92604.22
2023-04-19T07:58:28.043Z,92598.31
2023-04-19T08:03:34.911Z,92592.91
2023-04-19T08:08:37.466Z,92597.31
2023-04-19T08:13:40.403Z,92596.00
2023-04-19T08:18:42.523Z,92597.69
2023-04-19T08:23:48.196Z,92593.09
2023-04-19T08:28:52.406Z,92600.91
2023-04-19T08:33:54.250Z,92599.50
2023-04-19T08:39:04.773Z,92596.25
2023-04-19T08:44:32.733Z,92584.19
2023-04-19T08:49:42.616Z,92589.50
2023-04-19T08:54:46.610Z,92589.50
2023-04-19T08:59:52.304Z,92601.16
2023-04-19T09:04:54.405Z,92586.31
2023-04-19T09:10:07.709Z,92575.94
2023-04-19T09:15:10.938Z,92583.50
2023-04-19T09:20:12.841Z,92586.50
2023-04-19T09:25:46.390Z,92553.16
2023-04-19T09:31:02.402Z,92563.88
2023-04-19T09:36:07.036Z,92557.16
2023-04-19T09:41:09.269Z,92516.81
2023-04-19T09:46:32.508Z,92549.09
2023-04-19T09:51:41.695Z,92524.66
2023-04-19T09:56:44.590Z,92533.28
2023-04-19T10:01:56.845Z,92537.56
2023-04-19T10:07:25.134Z,92523.41
2023-04-19T10:12:48.165Z,92530.44
2023-04-19T10:17:50.728Z,92493.31
2023-04-19T10:22:53.087Z,92504.25
2023-04-19T10:27:54.882Z,92516.09
2023-04-19T10:32:58.852Z,92509.56
2023-04-19T10:38:08.390Z,92501.22
2023-04-19T10:43:13.374Z,92505.53
2023-04-19T10:48:33.621Z,92508.44
2023-04-19T10:53:50.925Z,92489.75
2023-04-19T10:59:22.265Z,92492.16
2023-04-19T11:04:30.209Z,92470.69
2023-04-19T11:09:34.659Z,92473.09
2023-04-19T11:14:45.716Z,92474.78
2023-04-19T11:20:07.048Z,92464.69
2023-04-19T11:25:22.486Z,92458.56
2023-04-19T11:30:30.414Z,92455.50
2023-04-19T11:35:32.265Z,92439.06
2023-04-19T11:40:34.131Z,92436.47
2023-04-19T11:45:39.619Z,92425.75
2023-04-19T11:50:43.824Z,92424.13
2023-04-19T11:56:06.751Z,92419.56
2023-04-19T12:01:10.785Z,92400.75
2023-04-19T12:06:15.070Z,92406.06
2023-04-19T12:11:24.613Z,92397.13
2023-04-19T12:16:29.264Z,92380.97
2023-04-19T12:21:33.041Z,92390.34
2023-04-19T12:26:35.779Z,92366.75
2023-04-19T12:31:37.754Z,92374.19
2023-04-19T12:36:39.568Z,92384.25
2023-04-19T12:41:41.412Z,92349.28
2023-04-19T12:46:43.344Z,92376.97
2023-04-19T12:51:47.464Z,92374.09
2023-04-19T12:56:49.308Z,92358.41
2023-04-19T13:01:51.131Z,92355.00
2023-04-19T13:06:52.957Z,92345.34
2023-04-19T13:11:55.239Z,92345.06
2023-04-19T13:16:57.078Z,92329.75
2023-04-19T13:21:58.914Z,92308.22
2023-04-19T13:27:02.082Z,92310.25
2023-04-19T13:32:07.461Z,92306.75
2023-04-19T13:37:09.486Z,92292.25
2023-04-19T13:42:12.439Z,92290.25
2023-04-19T13:47:14.430Z,92296.19
2023-04-19T13:52:16.230Z,92281.22
2023-04-19T13:57:18.133Z,92268.19
2023-04-19T14:02:20.193Z,92281.88
2023-04-19T14:07:22.126Z,92276.50
2023-04-19T14:12:23.985Z,92262.63
2023-04-19T14:17:26.301Z,92237.72
2023-04-19T14:22:28.228Z,92253.47
2023-04-19T14:27:30.428Z,92251.53
2023-04-19T14:32:32.531Z,92238.81
2023-04-19T14:37:35.070Z,92248.44
2023-04-19T14:42:36.911Z,92233.91
2023-04-19T14:47:38.925Z,92234.00
2023-04-19T14:52:41.671Z,92229.41
2023-04-19T14:57:43.532Z,92223.69
2023-04-19T15:02:45.518Z,92222.84
2023-04-19T15:07:47.538Z,92198.97
2023-04-19T15:12:49.390Z,92211.31
2023-04-19T15:17:51.577Z,92210.13
2023-04-19T15:22:53.603Z,92206.97
2023-04-19T15:27:55.709Z,92191.97
2023-04-19T15:32:57.645Z,92205.06
2023-04-19T15:37:59.500Z,92204.28
2023-04-19T15:43:02.009Z,92175.81
2023-04-19T15:48:04.197Z,92196.69
2023-04-19T15:53:07.469Z,92203.59
2023-04-19T15:58:09.374Z,92205.00
2023-04-19T16:03:12.634Z,92202.75
2023-04-19T16:08:19.251Z,92204.50
2023-04-19T16:13:21.403Z,92209.72
2023-04-19T16:18:23.256Z,92219.94
2023-04-19T16:23:25.112Z,92225.00
2023-04-19T16:28:26.979Z,92232.34
2023-04-19T16:33:28.939Z,92203.25
2023-04-19T16:38:30.927Z,92216.44
2023-04-19T16:43:33.298Z,92232.25
2023-04-19T16:48:35.305Z,92221.19
2023-04-19T16:53:37.147Z,92219.56
2023-04-19T16:58:39.527Z,92217.34
2023-04-19T17:03:41.512Z,92213.94
2023-04-19T17:08:43.537Z,92209.78
2023-04-19T17:13:45.357Z,92195.38
2023-04-19T17:18:47.182Z,92181.44
2023-04-19T17:23:48.986Z,92197.91
2023-04-19T17:28:50.906Z,92204.72
2023-04-19T17:33:52.699Z,92209.28
2023-04-19T17:38:54.521Z,92202.13
2023-04-19T17:43:57.185Z,92202.63
2023-04-19T17:48:59.167Z,92181.81
2023-04-19T17:54:01.056Z,92187.31
2023-04-19T17:59:04.076Z,92201.38
2023-04-19T18:04:06.279Z,92195.00
2023-04-19T18:09:08.401Z,92184.91
2023-04-19T18:14:10.418Z,92160.66
2023-04-19T18:19:12.362Z,92187.72
2023-04-19T18:24:14.418Z,92187.84
2023-04-19T18:29:16.458Z,92167.88
2023-04-19T18:34:19.196Z,92186.44
2023-04-19T18:39:21.014Z,92169.41
2023-04-19T18:44:48.142Z,92186.53
2023-04-19T18:49:55.691Z,92184.81
2023-04-19T18:55:06.238Z,92185.88
2023-04-19T19:00:11.522Z,92171.41
2023-04-19T19:05:15.568Z,92188.94
2023-04-19T19:10:21.826Z,92176.81
2023-04-19T19:15:25.134Z,92189.25
2023-04-19T19:20:27.296Z,92184.72
2023-04-19T19:25:29.175Z,92195.34
2023-04-19T19:30:33.837Z,92188.25
2023-04-19T19:35:35.992Z,92188.81
2023-04-19T19:40:53.559Z,92187.41
2023-04-19T19:46:02.975Z,92164.81
2023-04-19T19:51:24.979Z,92187.50
2023-04-19T19:56:28.203Z,92184.81
2023-04-19T20:01:30.172Z,92187.13
2023-04-19T20:07:21.444Z,92173.91
2023-04-19T20:11:55.580Z,92163.03
2023-04-19T20:16:57.649Z,92146.56
2023-04-19T20:22:00.519Z,92166.41
2023-04-19T20:27:02.490Z,92167.88
2023-04-19T20:32:04.848Z,92138.41
2023-04-19T20:37:07.011Z,92157.41
2023-04-19T20:42:08.888Z,92155.03
2023-04-19T20:47:12.911Z,92163.25
2023-04-19T20:52:15.081Z,92148.81
2023-04-19T20:57:17.122Z,92140.00
2023-04-19T21:02:18.976Z,92150.09
2023-04-19T21:07:20.838Z,92135.03
2023-04-19T21:12:22.597Z,92121.72
2023-04-19T21:17:24.418Z,92140.34
2023-04-19T21:22:26.200Z,92147.75
2023-04-19T21:27:28.065Z,92151.28
2023-04-19T21:32:30.012Z,92140.38
2023-04-19T21:37:31.898Z,92138.59
2023-04-19T21:42:33.766Z,92129.88
2023-04-19T21:47:35.707Z,92123.44
2023-04-19T21:52:37.743Z,92139.75
2023-04-19T21:57:39.480Z,92128.16
2023-04-19T22:02:41.695Z,92121.06
2023-04-19T22:07:44.919Z,92124.09
2023-04-19T22:12:57.764Z,92122.53
2023-04-19T22:18:03.138Z,92120.75
2023-04-19T22:23:05.301Z,92120.94
2023-04-19T22:28:07.836Z,92120.66
2023-04-19T22:33:09.816Z,92108.25
2023-04-19T22:38:11.785Z,92105.47
2023-04-19T22:43:13.621Z,92107.03
2023-04-19T22:48:15.943Z,92085.00
2023-04-19T22:53:18.246Z,92074.16
2023-04-19T22:58:20.128Z,92093.03
2023-04-19T23:03:21.998Z,92101.22
2023-04-19T23:08:25.022Z,92075.06
2023-04-19T23:13:27.032Z,92091.03
2023-04-19T23:18:30.027Z,92106.16
2023-04-19T23:23:32.121Z,92108.22
2023-04-19T23:28:33.948Z,92095.84
2023-04-19T23:33:36.247Z,92102.63
2023-04-19T23:38:38.103Z,92089.25
2023-04-19T23:43:39.956Z,92069.19
2023-04-19T23:48:41.758Z,92060.47
2023-04-19T23:53:43.798Z,92077.88
2023-04-19T23:58:45.624Z,92059.31
